AirNav   Pilot Hours Calculator
 
 1159 users online  

3LA4 Little Pecan Island Airport
Grand Chenier, Louisiana, USA

GOING TO GRAND CHENIER?


FAA INFORMATION EFFECTIVE 19 MAY 2022

Location

FAA Identifier: 3LA4
Lat/Long: 29-47-58.8500N 092-48-12.7300W
29-47.980833N 092-48.212167W
29.7996806,-92.8035361
(estimated)
Elevation: 6.7 ft. / 2.0 m (surveyed)
Variation: 01E (2020)
From city: 9 miles ENE of GRAND CHENIER, LA
Time zone: UTC -5 (UTC -6 during Standard Time)
Zip code: 70643

Airport Operations

Airport use: Private use. Permission required prior to landing
Activation date: 09/1950
Control tower: no
ARTCC: HOUSTON CENTER
FSS: DE RIDDER FLIGHT SERVICE STATION
Attendance: UNATNDD
Wind indicator: yes
Segmented circle: no
Lights: ACTVT REIL RWY 12 & 30; PAPI RWY 12; MIRL RWY 12/30 - 122.75.

Airport Communications

  • MULTICOM: 122.75

Nearby radio navigation aids

VOR radial/distance  VOR name  Freq  Var
LLAr286/23.8WHITE LAKE VOR/DME110.4004E
LCHr136/25.8LAKE CHARLES VORTAC113.4007E

 
NDB name  Hdg/Dist  Freq  Var  ID
ABBEVILLE244/38.723002EBNZ -... -. --..

Airport Services

Airframe service: NONE
Powerplant service: NONE

Runway Information

Runway 12/30

Dimensions: 4002 x 60 ft. / 1220 x 18 m
Surface: asphalt, in good condition
Runway edge lights: medium intensity
RUNWAY 12  RUNWAY 30
Latitude: 29-48.157795N29-47.803983N
Longitude: 092-48.531680W092-47.892570W
Elevation: 2.4 ft.6.7 ft.
Traffic pattern: leftleft
Markings: nonprecision, in good condition
Visual slope indicator: 2-light PAPI on left (3.00 degrees glide path)
Runway end identifier lights: yesyes
Touchdown point: yes, no lightsyes, no lights
Obstructions: bldgsnone

Airport Ownership and Management from official FAA records

Ownership: Privately-owned
Owner: LITTLE PECAN ISLAND, LLC
PO BOX 1083
HOUSTON, TX 77251-1083
Phone 281-723-3834
Manager: CHRISTOPHER MCCALL
P.O. BOX 1083
HOUSTON, TX 77251-1083
Phone 337-538-2320

Airport Operational Statistics

Aircraft operations: avg 22/month
93% local general aviation
7% air taxi

Additional Remarks

TREES ALL DIRECTIONS.
FOR FLT OPS AND PMSN TO LAND CTC 281-723-3834.
3L4 AWOS-3 IS ASSOCIATED WITH LITTLE PECAN ISLAND AIRPORT 3LA4.
FOR CD CTC LAKE CHARLES APCH AT 337-480-3103, WHEN APCH CLSD CTC HOUSTON ARTCC AT 281-230-5622.

Instrument Procedures

There are no published instrument procedures at 3LA4.

Some nearby airports with instrument procedures:

6R1 - Welsh Airport (27 nm N)
3R7 - Jennings Airport (27 nm N)
KLCH - Lake Charles Regional Airport (29 nm NW)
KCWF - Chennault International Airport (30 nm NW)
KUXL - Southland Field Airport (36 nm NW)
 
Loc | Ops | Rwys | IFR | FBO | Links
Com | Nav | Svcs | Stats | Notes
Area around 3LA4 (Little Pecan Island Airport)
 
Road maps at: MapQuest Bing Google
 
Aerial photo
WARNING: Photo may not be current or correct
Aerial photo of 3LA4 (Little Pecan Island Airport)
Photo by Buddy Johnson
Photo taken 23-Nov-2019
looking northwest

Do you have a better or more recent aerial photo of Little Pecan Island Airport that you would like to share? If so, please send us your photo.

 
Sectional chart

 
Airport distance calculator
Flying to Little Pecan Island Airport? Find the distance to fly.

From to 3LA4

Sunrise and sunset
Times for 28-May-2022
 Local
(UTC-5)
 Zulu
(UTC)
Morning civil twilight05:4610:46
Sunrise06:1311:13
Sunset20:0401:04
Evening civil twilight20:3101:31

Current date and time
Zulu (UTC)  28-May-2022 15:00:05
Local (UTC-5)  28-May-2022 10:00:05
 
METAR
K3R7 
27nm N 
281455Z AUTO 08005KT 10SM CLR 25/15 A2999 RMK AO2 T02520146
KLCH 
29nm NW 
281453Z 12005KT 10SM CLR 26/15 A2998 RMK AO2 SLP160 T02610150 51009
KCWF 
31nm NW 
281353Z 09008KT 10SM SKC 24/16 A2998
KUXL 
36nm NW 
281435Z AUTO 10006KT 10SM SCT002 27/14 A2999 RMK AO2 T02700140
KIYA 
39nm E 
281435Z AUTO 06003KT 7SM CLR 25/14 A2998 RMK AO2 T02450138
K0R3 
39nm E 
118.875
No observation available
KLFT 
48nm NE 
281453Z 06005KT 10SM CLR 26/16 A2998 RMK AO2 SLP151 T02560161 50007
KARA 
50nm E 
281453Z 05005KT 10SM CLR 26/17 A2997 RMK AO2 SLP149 T02610167 50006
TAF
KLCH 
29nm NW 
281121Z 2812/2912 VRB04KT P6SM SKC FM290000 19006KT P6SM SKC
NOTAMs
Click for the latest NOTAMs
NOTAMs are issued by the DoD/FAA and will open in a separate window not controlled by AirNav.

 

 
 

Would you like to see your business listed on this page?

 If your business provides an interesting product or service to pilots, flight crews, aircraft, or users of the Little Pecan Island Airport, you should consider listing it here.  To start the listing process, click on the button below
 
Add a business
 

Other Pages about Little Pecan Island Airport

Update a link
 
Copyright © AirNav, LLC. All rights reserved. Privacy Policy  Contact